Allentown, Illinois
Current Conditions -  °F | °C
As of 5:54 AM on Monday 22 Dec 2014 (Local Time) from KPIA Reporting Station
Overcast Overcast  
Wind Chill: -1°   Ceiling: 4500
Heat Index:   Visibility: 7mi
Dew Point: -1°   Wind: 9mph
Humidity: 76%   Direction: 130°SE
Pressure: 29.86"   Gusts: NA
Location:  40.4817°N, 89.4923°W
Report Text: KPIA 221154Z 13008KT 7SM OVC045 03/M01 A2986 RMK AO2 SLP115 60000 T00281011 10033 20022 56020
Loading
Personal Weather Stations






























Interactive Weather Map New forecast layout! Learn more

10-Day Weather Forecast

Advertisements
Track Severe Weather on mobile